Time;durP1;ratioP1;P1;durP2;ratioP2;P2;SDS_P1;SDS_P2;PMS_P1;PMS_P2;Temp;Humidity;BMP_temperature;BMP_pressure;BME280_temperature;BME280_humidity;BME280_pressure;Samples;Min_cycle;Max_cycle;Signal;HPM_P1;HPM_P2
2023/04/01 00:01:03;;;;;;;0.90;0.45;;;13.30;99.90;;;;;;5076104;28;20183;-67
2023/04/01 00:03:32;;;;;;;1.42;0.50;;;13.40;99.90;;;;;;5072077;28;20184;-63
2023/04/01 00:06:01;;;;;;;1.63;0.43;;;13.30;99.90;;;;;;5096383;28;20270;-67
2023/04/01 00:08:32;;;;;;;1.05;0.32;;;13.30;99.90;;;;;;5076225;28;20173;-67
2023/04/01 00:10:58;;;;;;;1.00;0.57;;;13.30;99.90;;;;;;5076115;28;20210;-67
2023/04/01 00:13:28;;;;;;;1.10;0.40;;;13.30;99.90;;;;;;5081535;28;20266;-67
2023/04/01 00:15:55;;;;;;;0.85;0.30;;;13.30;99.90;;;;;;5090376;28;20228;-67
2023/04/01 00:18:24;;;;;;;1.45;0.60;;;13.30;99.90;;;;;;5072868;28;20177;-68
2023/04/01 00:20:52;;;;;;;1.95;0.47;;;13.30;99.90;;;;;;5078977;28;20184;-70
2023/04/01 00:23:20;;;;;;;1.70;0.77;;;13.30;99.90;;;;;;5075768;28;20200;-66
2023/04/01 00:25:47;;;;;;;1.00;0.47;;;13.30;99.90;;;;;;5075268;28;20215;-66
2023/04/01 00:28:14;;;;;;;0.82;0.40;;;13.30;99.90;;;;;;5075566;28;20181;-68
2023/04/01 00:30:40;;;;;;;0.82;0.40;;;13.30;99.90;;;;;;5075592;28;20173;-67
2023/04/01 00:33:08;;;;;;;2.72;0.82;;;13.30;99.90;;;;;;5058640;28;20272;-65
2023/04/01 00:35:35;;;;;;;1.65;0.52;;;13.20;99.90;;;;;;5056695;28;20215;-67
2023/04/01 00:38:00;;;;;;;0.88;0.40;;;13.20;99.90;;;;;;5058093;28;20280;-68
2023/04/01 00:40:39;;;;;;;0.50;0.30;;;13.20;99.90;;;;;;5090853;28;20248;-67
2023/04/01 00:43:15;;;;;;;1.15;0.40;;;13.20;99.90;;;;;;5072463;28;20203;-68
2023/04/01 00:45:42;;;;;;;2.05;0.63;;;13.20;99.90;;;;;;5065326;28;20260;-66
2023/04/01 00:48:17;;;;;;;2.10;0.95;;;13.20;99.90;;;;;;5089045;28;20173;-68
2023/04/01 00:50:48;;;;;;;4.03;2.55;;;13.20;99.90;;;;;;5065286;28;20215;-67
2023/04/01 00:53:17;;;;;;;2.60;0.80;;;13.20;99.90;;;;;;5058434;28;20192;-67
2023/04/01 00:55:52;;;;;;;0.50;0.28;;;13.20;99.90;;;;;;5060798;28;20208;-68
2023/04/01 00:58:21;;;;;;;0.65;0.32;;;13.20;99.90;;;;;;5064520;28;20252;-69
2023/04/01 01:00:48;;;;;;;0.70;0.30;;;13.20;99.90;;;;;;5057359;28;20203;-68
2023/04/01 01:03:14;;;;;;;1.20;0.50;;;13.20;99.90;;;;;;5071999;28;20177;-68
2023/04/01 01:05:54;;;;;;;1.13;0.40;;;13.10;99.90;;;;;;5055425;28;20188;-65
2023/04/01 01:08:37;;;;;;;0.80;0.40;;;13.20;99.90;;;;;;5070070;28;20185;-66
2023/04/01 01:11:05;;;;;;;0.88;0.35;;;13.10;99.90;;;;;;5064184;28;20197;-68
2023/04/01 01:13:44;;;;;;;0.57;0.20;;;13.10;99.90;;;;;;5055633;28;20192;-68
2023/04/01 01:16:21;;;;;;;0.68;0.38;;;13.10;99.90;;;;;;5058653;28;20201;-67
2023/04/01 01:18:56;;;;;;;1.88;0.25;;;13.10;99.90;;;;;;5061594;28;20176;-68
2023/04/01 01:21:24;;;;;;;0.60;0.30;;;13.10;99.90;;;;;;5072836;28;20156;-64
2023/04/01 01:23:57;;;;;;;1.40;0.50;;;13.10;99.90;;;;;;5063935;28;20237;-68
2023/04/01 01:26:51;;;;;;;1.25;0.40;;;13.10;99.90;;;;;;5071830;28;20188;-68
2023/04/01 01:29:17;;;;;;;0.80;0.40;;;13.10;99.90;;;;;;5069133;28;20197;-68
2023/04/01 01:31:55;;;;;;;1.45;0.45;;;13.10;99.90;;;;;;5092525;28;20177;-65
2023/04/01 01:34:32;;;;;;;0.57;0.30;;;13.10;99.90;;;;;;5074721;28;20240;-68
2023/04/01 01:37:08;;;;;;;0.63;0.30;;;13.10;99.90;;;;;;5063299;28;20201;-68
2023/04/01 01:39:37;;;;;;;0.80;0.30;;;13.10;99.90;;;;;;5066618;28;20207;-68
2023/04/01 01:42:09;;;;;;;0.25;0.20;;;13.10;99.90;;;;;;5067449;28;20173;-68
2023/04/01 01:44:37;;;;;;;1.63;0.40;;;13.10;99.90;;;;;;5068250;28;20193;-67
2023/04/01 01:47:03;;;;;;;0.63;0.40;;;13.10;99.90;;;;;;5054811;28;20181;-67
2023/04/01 01:49:31;;;;;;;0.75;0.50;;;13.10;99.90;;;;;;5068918;28;20179;-66
2023/04/01 01:51:57;;;;;;;0.65;0.40;;;13.10;99.90;;;;;;5055268;28;20211;-67
2023/04/01 01:54:23;;;;;;;0.70;0.30;;;13.10;99.90;;;;;;5088041;28;20239;-68
2023/04/01 01:56:58;;;;;;;0.55;0.20;;;13.00;99.90;;;;;;5054674;28;20227;-67
2023/04/01 01:59:28;;;;;;;0.98;0.35;;;13.10;99.90;;;;;;5069101;28;20196;-67
2023/04/01 02:01:59;;;;;;;0.63;0.30;;;13.10;99.90;;;;;;5069370;28;20183;-66
2023/04/01 02:04:25;;;;;;;1.10;0.30;;;13.10;99.90;;;;;;5054842;28;20173;-67
2023/04/01 02:07:04;;;;;;;0.93;0.40;;;13.10;99.90;;;;;;5073599;28;20195;-68
2023/04/01 02:09:34;;;;;;;1.00;0.28;;;13.10;99.90;;;;;;5068069;28;20184;-67
2023/04/01 02:12:06;;;;;;;0.30;0.30;;;13.10;99.90;;;;;;5065538;28;20246;-67
2023/04/01 02:15:08;;;;;;;0.90;0.40;;;13.00;99.90;;;;;;5074216;28;20195;-68
2023/04/01 02:17:35;;;;;;;0.80;0.32;;;13.00;99.90;;;;;;5065880;28;20169;-67
2023/04/01 02:20:04;;;;;;;0.30;0.20;;;13.00;99.90;;;;;;5062413;28;20180;-67
2023/04/01 02:22:36;;;;;;;0.98;0.30;;;13.10;99.90;;;;;;5087961;28;20193;-67
2023/04/01 02:25:11;;;;;;;1.17;0.35;;;13.00;99.90;;;;;;5057097;28;22653;-68
2023/04/01 02:27:38;;;;;;;1.98;0.43;;;13.00;99.90;;;;;;5054692;28;20177;-67
2023/04/01 02:30:05;;;;;;;0.20;0.20;;;13.00;99.90;;;;;;5058383;28;20201;-67
2023/04/01 02:32:33;;;;;;;0.73;0.28;;;13.00;99.90;;;;;;5070306;28;20189;-67
2023/04/01 02:35:03;;;;;;;0.63;0.20;;;12.90;99.90;;;;;;5059919;28;20193;-67
2023/04/01 02:37:31;;;;;;;1.02;0.30;;;12.90;99.90;;;;;;5062886;28;20197;-67
2023/04/01 02:40:03;;;;;;;0.70;0.30;;;12.90;99.90;;;;;;5070040;28;20184;-67
2023/04/01 02:42:28;;;;;;;1.50;0.40;;;12.90;99.90;;;;;;5066108;28;20178;-71
2023/04/01 02:44:54;;;;;;;0.60;0.30;;;12.90;99.90;;;;;;5056186;28;20258;-68
2023/04/01 02:47:19;;;;;;;0.40;0.20;;;12.80;99.90;;;;;;5064024;28;20199;-69
2023/04/01 02:49:45;;;;;;;0.50;0.20;;;12.80;99.90;;;;;;5073755;28;20189;-67
2023/04/01 02:52:10;;;;;;;1.15;0.30;;;12.80;99.90;;;;;;5075416;28;20201;-68
2023/04/01 02:54:36;;;;;;;0.63;0.20;;;12.70;99.90;;;;;;5061570;28;20211;-68
2023/04/01 02:57:06;;;;;;;0.10;0.10;;;12.70;99.90;;;;;;5071875;28;20165;-67
2023/04/01 02:59:32;;;;;;;1.92;0.38;;;12.70;99.90;;;;;;5069978;28;20536;-67
2023/04/01 03:01:58;;;;;;;0.38;0.20;;;12.60;99.90;;;;;;5094431;28;20173;-65
2023/04/01 03:04:24;;;;;;;1.08;0.30;;;12.60;99.90;;;;;;5069407;28;20256;-68
2023/04/01 03:06:52;;;;;;;0.20;0.20;;;12.60;99.90;;;;;;5069311;28;20196;-67
2023/04/01 03:09:19;;;;;;;1.20;0.70;;;12.50;99.90;;;;;;5070384;28;20164;-66
2023/04/01 03:11:47;;;;;;;0.38;0.32;;;12.50;99.90;;;;;;5073119;28;20239;-68
2023/04/01 03:14:13;;;;;;;0.13;0.13;;;12.40;99.90;;;;;;5077294;28;20191;-68
2023/04/01 03:16:39;;;;;;;0.43;0.30;;;12.40;99.90;;;;;;5070483;28;20261;-67
2023/04/01 03:19:07;;;;;;;0.38;0.28;;;12.30;99.90;;;;;;5064321;28;20181;-67
2023/04/01 03:21:33;;;;;;;0.60;0.30;;;12.20;99.90;;;;;;5057450;28;20231;-68
2023/04/01 03:23:58;;;;;;;0.95;0.55;;;12.10;99.90;;;;;;5058583;28;20177;-70
2023/04/01 03:26:26;;;;;;;0.30;0.20;;;12.10;99.90;;;;;;5065450;28;20234;-67
2023/04/01 03:28:52;;;;;;;0.40;0.20;;;12.00;99.90;;;;;;5076406;28;20193;-67
2023/04/01 03:31:18;;;;;;;0.35;0.20;;;12.10;99.90;;;;;;5067037;28;20173;-67
2023/04/01 03:33:43;;;;;;;0.22;0.10;;;12.00;99.90;;;;;;5095289;28;20200;-67
2023/04/01 03:36:14;;;;;;;0.50;0.20;;;12.00;99.90;;;;;;5076824;28;20245;-68
2023/04/01 03:38:45;;;;;;;0.40;0.20;;;12.10;99.90;;;;;;5073273;28;20192;-68
2023/04/01 03:41:16;;;;;;;0.32;0.25;;;12.10;99.90;;;;;;5090544;28;20177;-68
2023/04/01 03:43:41;;;;;;;0.38;0.30;;;12.10;99.90;;;;;;5060230;28;20177;-68
2023/04/01 03:46:07;;;;;;;0.63;0.25;;;12.10;99.90;;;;;;5064488;28;20200;-68
2023/04/01 03:48:33;;;;;;;0.20;0.20;;;12.20;99.90;;;;;;5077216;28;20169;-68
2023/04/01 03:51:01;;;;;;;1.05;0.30;;;12.20;99.90;;;;;;5074498;28;20275;-68
2023/04/01 03:53:28;;;;;;;0.10;0.10;;;12.30;99.90;;;;;;5057889;28;20181;-68
2023/04/01 03:55:54;;;;;;;0.20;0.20;;;12.20;99.90;;;;;;5076444;28;20279;-68
2023/04/01 03:58:27;;;;;;;0.77;0.38;;;12.30;99.90;;;;;;5071732;28;20192;-68
2023/04/01 04:00:52;;;;;;;0.47;0.20;;;12.30;99.90;;;;;;5097607;28;20197;-68
2023/04/01 04:03:18;;;;;;;0.32;0.30;;;12.30;99.90;;;;;;5071675;28;20205;-68
2023/04/01 04:05:48;;;;;;;1.15;0.20;;;12.30;99.90;;;;;;5070625;28;20170;-67
2023/04/01 04:08:14;;;;;;;0.68;0.28;;;12.40;99.90;;;;;;5063864;28;20200;-68
2023/04/01 04:10:41;;;;;;;0.45;0.20;;;12.40;99.90;;;;;;5065848;28;20192;-68
2023/04/01 04:13:06;;;;;;;0.47;0.20;;;12.40;99.90;;;;;;5072544;28;20180;-69
2023/04/01 04:15:32;;;;;;;0.35;0.20;;;12.40;99.90;;;;;;5075452;28;20204;-67
2023/04/01 04:17:57;;;;;;;0.43;0.20;;;12.50;99.90;;;;;;5076216;28;20173;-68
2023/04/01 04:20:23;;;;;;;0.20;0.10;;;12.50;99.90;;;;;;5062763;28;20181;-69
2023/04/01 04:22:53;;;;;;;0.57;0.20;;;12.50;99.90;;;;;;5074337;28;20495;-65
2023/04/01 04:25:24;;;;;;;0.57;0.22;;;12.50;99.90;;;;;;5102663;28;20513;-68
2023/04/01 04:27:51;;;;;;;0.28;0.10;;;12.50;99.90;;;;;;5089861;28;20303;-69
2023/04/01 04:30:19;;;;;;;0.50;0.22;;;12.50;99.90;;;;;;5090681;28;20288;-68
2023/04/01 04:32:47;;;;;;;0.17;0.17;;;12.50;99.90;;;;;;5092605;28;20177;-68
2023/04/01 04:35:13;;;;;;;0.28;0.28;;;12.50;99.90;;;;;;5061753;28;20189;-67
2023/04/01 04:37:38;;;;;;;0.25;0.20;;;12.50;99.90;;;;;;5064482;28;20289;-66
2023/04/01 04:40:04;;;;;;;0.17;0.15;;;12.50;99.90;;;;;;5089035;28;20208;-65
2023/04/01 04:42:32;;;;;;;0.63;0.38;;;12.50;99.90;;;;;;5055316;28;20174;-68
2023/04/01 04:45:00;;;;;;;0.20;0.20;;;12.50;99.90;;;;;;5064675;28;20200;-67
2023/04/01 04:47:26;;;;;;;0.45;0.20;;;12.50;99.90;;;;;;5071469;28;20177;-68
2023/04/01 04:49:51;;;;;;;0.28;0.20;;;12.50;99.90;;;;;;5057503;28;20234;-67
2023/04/01 04:52:19;;;;;;;0.10;0.10;;;12.50;99.90;;;;;;5062156;28;20173;-66
2023/04/01 04:54:45;;;;;;;0.13;0.10;;;12.50;99.90;;;;;;5060949;28;20173;-67
2023/04/01 04:57:13;;;;;;;0.20;0.10;;;12.50;99.90;;;;;;5058873;28;20200;-66
2023/04/01 04:59:39;;;;;;;0.13;0.10;;;12.50;99.90;;;;;;5076089;28;20182;-68
2023/04/01 05:02:05;;;;;;;0.65;0.30;;;12.50;99.90;;;;;;5100162;28;20190;-67
2023/04/01 05:04:35;;;;;;;0.43;0.20;;;12.50;99.90;;;;;;5067031;28;20181;-67
2023/04/01 05:07:00;;;;;;;0.10;0.10;;;12.40;99.90;;;;;;5095832;28;20187;-68
2023/04/01 05:09:28;;;;;;;0.10;0.10;;;12.40;99.90;;;;;;5073989;28;20192;-68
2023/04/01 05:11:54;;;;;;;0.15;0.10;;;12.40;99.90;;;;;;5074457;28;20199;-67
2023/04/01 05:14:20;;;;;;;0.28;0.10;;;12.30;99.90;;;;;;5068365;28;20177;-68
2023/04/01 05:16:45;;;;;;;0.20;0.20;;;12.30;99.90;;;;;;5092319;28;20201;-68
2023/04/01 05:19:13;;;;;;;0.05;0.05;;;12.30;99.90;;;;;;5074243;28;20230;-68
2023/04/01 05:21:39;;;;;;;0.60;0.13;;;12.20;99.90;;;;;;5070210;28;20173;-69
2023/04/01 05:24:09;;;;;;;0.63;0.10;;;12.20;99.90;;;;;;5058412;28;20207;-68
2023/04/01 05:26:36;;;;;;;0.20;0.20;;;12.10;99.90;;;;;;5076350;28;20183;-68
2023/04/01 05:29:03;;;;;;;0.00;0.00;;;12.10;99.90;;;;;;5094626;28;20204;-67
2023/04/01 05:31:31;;;;;;;0.20;0.13;;;12.00;99.90;;;;;;5078460;28;20173;-67
2023/04/01 05:33:57;;;;;;;0.25;0.20;;;12.00;99.90;;;;;;5071258;28;20177;-64
2023/04/01 05:36:23;;;;;;;0.45;0.25;;;12.00;99.90;;;;;;5074496;28;20273;-68
2023/04/01 05:38:50;;;;;;;0.40;0.20;;;12.00;99.90;;;;;;5074019;28;20200;-68
2023/04/01 05:41:16;;;;;;;0.22;0.22;;;12.00;99.90;;;;;;5060420;28;20181;-67
2023/04/01 05:43:42;;;;;;;0.40;0.20;;;12.00;99.90;;;;;;5070926;28;20204;-68
2023/04/01 05:46:08;;;;;;;0.20;0.20;;;11.90;99.90;;;;;;5071156;28;20177;-67
2023/04/01 05:48:34;;;;;;;0.28;0.17;;;11.80;99.90;;;;;;5073240;28;20237;-67
2023/04/01 05:51:01;;;;;;;0.68;0.10;;;11.80;99.90;;;;;;5074487;28;20176;-68
2023/04/01 05:53:26;;;;;;;0.30;0.30;;;11.80;99.90;;;;;;5074400;28;20173;-68
2023/04/01 05:55:54;;;;;;;0.10;0.10;;;11.80;99.90;;;;;;5074130;28;20207;-67
2023/04/01 05:58:22;;;;;;;0.17;0.17;;;11.80;99.90;;;;;;5074207;28;20236;-68
2023/04/01 06:00:50;;;;;;;0.57;0.20;;;11.80;99.90;;;;;;5074234;28;20272;-68
2023/04/01 06:03:16;;;;;;;0.30;0.20;;;11.80;99.90;;;;;;5074178;28;20287;-68
2023/04/01 06:05:43;;;;;;;0.20;0.20;;;11.80;99.90;;;;;;5074261;28;20196;-67
2023/04/01 06:08:17;;;;;;;0.20;0.20;;;11.80;99.90;;;;;;5074219;28;20184;-68
2023/04/01 06:10:48;;;;;;;0.10;0.10;;;11.90;99.90;;;;;;5073889;28;20215;-68
2023/04/01 06:13:50;;;;;;;0.52;0.20;;;11.90;99.90;;;;;;5074093;28;20185;-64
2023/04/01 06:16:55;;;;;;;0.30;0.22;;;11.90;99.90;;;;;;5074074;28;20192;-67
2023/04/01 06:19:29;;;;;;;0.32;0.20;;;12.00;99.90;;;;;;5068876;28;20177;-68
2023/04/01 06:22:07;;;;;;;0.20;0.20;;;12.00;99.90;;;;;;5073761;28;20309;-68
2023/04/01 06:24:44;;;;;;;0.20;0.20;;;12.00;99.90;;;;;;5077973;28;20303;-67
2023/04/01 06:27:37;;;;;;;1.13;0.20;;;12.00;99.90;;;;;;5078127;28;20175;-68
2023/04/01 06:30:42;;;;;;;0.30;0.22;;;11.90;99.90;;;;;;5078341;28;20333;-67
2023/04/01 06:33:28;;;;;;;0.65;0.30;;;12.00;99.90;;;;;;5070315;28;20255;-65
2023/04/01 06:36:26;;;;;;;0.80;0.40;;;11.90;99.90;;;;;;5128781;27;20213;-68
2023/04/01 06:39:00;;;;;;;0.40;0.30;;;11.90;99.90;;;;;;5062662;28;20203;-69
2023/04/01 06:41:44;;;;;;;0.30;0.30;;;11.90;99.90;;;;;;5077864;28;20222;-68
2023/04/01 06:44:32;;;;;;;0.28;0.20;;;12.00;99.90;;;;;;5077672;28;20189;-69
2023/04/01 06:47:22;;;;;;;0.32;0.20;;;12.00;99.90;;;;;;5077834;28;20204;-65
2023/04/01 06:50:07;;;;;;;0.45;0.20;;;12.00;99.90;;;;;;5059351;28;20216;-67
2023/04/01 06:52:48;;;;;;;0.20;0.20;;;12.00;99.90;;;;;;5058212;28;20161;-66
2023/04/01 06:55:37;;;;;;;0.30;0.25;;;12.10;99.90;;;;;;5058146;28;20193;-65
2023/04/01 06:58:21;;;;;;;0.30;0.30;;;12.10;99.90;;;;;;5059113;28;20204;-66
2023/04/01 07:00:52;;;;;;;0.50;0.30;;;12.10;99.90;;;;;;5091991;28;20173;-68
2023/04/01 07:03:44;;;;;;;0.50;0.30;;;12.20;99.90;;;;;;5077619;28;20176;-69
2023/04/01 07:06:30;;;;;;;0.20;0.20;;;12.20;99.90;;;;;;5067651;28;20189;-68
2023/04/01 07:09:00;;;;;;;0.30;0.30;;;12.30;99.90;;;;;;5061436;28;20197;-66
2023/04/01 07:11:34;;;;;;;0.13;0.13;;;12.30;99.90;;;;;;5057607;28;20189;-65
2023/04/01 07:14:08;;;;;;;0.30;0.20;;;12.30;99.90;;;;;;5057382;28;20173;-66
2023/04/01 07:16:58;;;;;;;0.20;0.20;;;12.40;99.90;;;;;;5058151;28;20392;-65
2023/04/01 07:19:34;;;;;;;1.02;0.20;;;12.40;99.90;;;;;;5091390;28;20208;-65
2023/04/01 07:22:18;;;;;;;0.28;0.20;;;12.40;99.90;;;;;;5057660;28;20420;-66
2023/04/01 07:24:47;;;;;;;0.47;0.30;;;12.40;99.90;;;;;;5074362;28;20197;-65
2023/04/01 07:27:15;;;;;;;0.38;0.32;;;12.40;99.90;;;;;;5074217;28;20170;-65
2023/04/01 07:29:44;;;;;;;0.47;0.43;;;12.40;99.90;;;;;;5077474;28;20176;-65
2023/04/01 07:32:18;;;;;;;0.70;0.30;;;12.40;99.90;;;;;;5077196;28;20193;-66
2023/04/01 07:35:02;;;;;;;1.10;0.50;;;12.40;99.90;;;;;;5072801;28;20213;-66
2023/04/01 07:37:39;;;;;;;0.68;0.30;;;12.50;99.90;;;;;;5091070;28;20189;-66
2023/04/01 07:40:30;;;;;;;1.40;0.40;;;12.40;99.90;;;;;;5090937;28;20173;-66
2023/04/01 07:43:29;;;;;;;0.55;0.40;;;12.50;99.90;;;;;;5057021;28;20161;-66
2023/04/01 07:46:02;;;;;;;0.50;0.38;;;12.50;99.90;;;;;;5076359;28;20207;-66
2023/04/01 07:48:37;;;;;;;0.98;0.45;;;12.50;99.90;;;;;;5076907;28;20197;-66
2023/04/01 07:51:36;;;;;;;0.43;0.40;;;12.60;99.90;;;;;;5076797;28;20267;-65
2023/04/01 07:54:28;;;;;;;0.40;0.40;;;12.60;99.90;;;;;;5077480;28;20169;-66
2023/04/01 07:57:37;;;;;;;0.70;0.50;;;12.60;99.90;;;;;;5076729;28;20184;-65
2023/04/01 08:00:21;;;;;;;1.13;0.30;;;12.60;99.90;;;;;;5076949;28;20169;-65
2023/04/01 08:03:07;;;;;;;0.40;0.35;;;12.60;99.90;;;;;;5057828;28;20197;-66
2023/04/01 08:05:54;;;;;;;1.17;0.40;;;12.60;99.90;;;;;;5065989;28;20215;-67
2023/04/01 08:08:25;;;;;;;0.20;0.20;;;12.60;99.90;;;;;;5077010;28;20189;-66
2023/04/01 08:11:23;;;;;;;0.30;0.25;;;12.70;99.90;;;;;;5057931;28;20247;-66
2023/04/01 08:14:14;;;;;;;0.30;0.30;;;12.60;99.90;;;;;;5043638;28;20200;-67
2023/04/01 08:16:51;;;;;;;0.50;0.40;;;12.60;99.90;;;;;;5090135;28;20189;-66
2023/04/01 08:19:45;;;;;;;0.40;0.35;;;12.50;99.90;;;;;;5089581;28;20192;-66
2023/04/01 08:22:23;;;;;;;0.60;0.50;;;12.50;99.90;;;;;;5063786;28;20188;-66
2023/04/01 08:24:51;;;;;;;0.52;0.30;;;12.60;99.90;;;;;;5056727;28;20157;-67
2023/04/01 08:27:39;;;;;;;1.15;0.50;;;12.50;99.90;;;;;;5062397;28;20176;-66
2023/04/01 08:30:15;;;;;;;0.22;0.22;;;12.50;99.90;;;;;;5075992;28;20201;-67
2023/04/01 08:32:47;;;;;;;0.70;0.57;;;12.50;99.90;;;;;;5076413;28;20255;-67
2023/04/01 08:35:16;;;;;;;1.02;0.50;;;12.40;99.90;;;;;;5061885;28;20223;-66
2023/04/01 08:37:43;;;;;;;0.50;0.40;;;12.50;99.90;;;;;;5056064;28;20201;-66
2023/04/01 08:40:35;;;;;;;0.30;0.30;;;12.50;99.90;;;;;;5073062;28;20184;-67
2023/04/01 08:43:20;;;;;;;0.20;0.20;;;12.50;99.90;;;;;;5073029;28;20197;-66
2023/04/01 08:45:45;;;;;;;0.55;0.40;;;12.50;99.90;;;;;;5074809;28;20172;-67
2023/04/01 08:48:25;;;;;;;0.20;0.20;;;12.60;99.90;;;;;;5064585;28;20211;-66
2023/04/01 08:51:43;;;;;;;0.30;0.28;;;12.50;99.90;;;;;;5095079;28;20176;-68
2023/04/01 08:54:37;;;;;;;0.10;0.10;;;12.60;99.90;;;;;;5045952;28;20204;-64
2023/04/01 08:57:08;;;;;;;0.20;0.20;;;12.60;99.90;;;;;;5094801;28;20193;-67
2023/04/01 08:59:45;;;;;;;0.47;0.20;;;12.60;99.90;;;;;;5107897;28;20176;-66
2023/04/01 09:02:31;;;;;;;0.30;0.30;;;12.60;99.90;;;;;;5055729;28;20162;-67
2023/04/01 09:05:37;;;;;;;0.45;0.10;;;12.60;99.90;;;;;;5059315;28;20169;-67
2023/04/01 09:08:05;;;;;;;0.73;0.30;;;12.60;99.90;;;;;;5090237;28;20499;-66
2023/04/01 09:10:49;;;;;;;0.50;0.28;;;12.50;99.90;;;;;;5101106;28;20238;-66
2023/04/01 09:13:56;;;;;;;0.30;0.20;;;12.40;99.90;;;;;;5056377;28;20197;-67
2023/04/01 09:16:40;;;;;;;0.50;0.20;;;12.30;99.90;;;;;;5076208;28;20280;-66
2023/04/01 09:19:29;;;;;;;0.50;0.30;;;12.30;99.90;;;;;;5058023;28;20197;-67
2023/04/01 09:22:06;;;;;;;0.30;0.30;;;12.20;99.90;;;;;;5064399;28;20177;-66
2023/04/01 09:25:07;;;;;;;1.15;0.40;;;12.20;99.90;;;;;;5073045;28;20237;-65
2023/04/01 09:27:45;;;;;;;0.30;0.30;;;12.20;99.90;;;;;;5056705;28;20185;-66
2023/04/01 09:30:19;;;;;;;0.35;0.30;;;12.30;99.90;;;;;;5092033;28;20179;-66
2023/04/01 09:33:16;;;;;;;0.35;0.32;;;12.20;99.90;;;;;;5065290;28;20172;-66
2023/04/01 09:35:48;;;;;;;0.20;0.20;;;12.20;99.90;;;;;;5071791;28;20204;-66
2023/04/01 09:38:30;;;;;;;0.40;0.30;;;12.20;99.90;;;;;;5059339;28;20201;-66
2023/04/01 09:41:31;;;;;;;0.30;0.30;;;12.20;99.90;;;;;;5069668;28;20165;-67
2023/04/01 09:44:25;;;;;;;0.45;0.30;;;12.20;99.90;;;;;;5062736;28;20196;-66
2023/04/01 09:47:23;;;;;;;0.57;0.40;;;12.30;99.90;;;;;;5075025;28;20175;-66
2023/04/01 09:50:23;;;;;;;0.30;0.30;;;12.30;99.90;;;;;;5071225;28;20184;-66
2023/04/01 09:53:07;;;;;;;0.50;0.40;;;12.40;99.90;;;;;;5073614;28;20173;-68
2023/04/01 09:55:57;;;;;;;0.47;0.30;;;12.50;99.90;;;;;;5073576;28;20249;-67
2023/04/01 09:59:00;;;;;;;0.40;0.40;;;12.60;99.90;;;;;;5070557;28;20196;-66
2023/04/01 10:01:52;;;;;;;0.22;0.22;;;12.70;99.90;;;;;;5069752;28;20165;-65
2023/04/01 10:04:34;;;;;;;0.45;0.30;;;12.70;99.90;;;;;;5074207;28;20193;-65
2023/04/01 10:07:23;;;;;;;0.20;0.20;;;12.80;99.90;;;;;;5075055;28;20187;-66
2023/04/01 10:10:32;;;;;;;0.68;0.40;;;12.90;99.90;;;;;;5070754;28;20288;-66
2023/04/01 10:13:28;;;;;;;0.20;0.20;;;13.00;99.90;;;;;;5070350;28;20185;-66
2023/04/01 10:16:19;;;;;;;0.75;0.43;;;13.00;99.90;;;;;;5084432;28;20200;-66
2023/04/01 10:19:33;;;;;;;0.30;0.30;;;13.10;99.90;;;;;;5077924;28;20177;-65
2023/04/01 10:22:17;;;;;;;0.20;0.20;;;13.10;99.90;;;;;;5069909;28;20250;-65
2023/04/01 10:25:03;;;;;;;0.28;0.28;;;13.20;99.90;;;;;;5054901;28;20209;-65
2023/04/01 10:27:43;;;;;;;0.63;0.32;;;13.20;99.90;;;;;;5057036;28;20458;-68
2023/04/01 10:30:56;;;;;;;0.20;0.20;;;13.30;99.90;;;;;;5076336;28;20176;-67
2023/04/01 10:34:10;;;;;;;0.75;0.30;;;13.40;99.90;;;;;;5047991;28;20229;-64
2023/04/01 10:37:03;;;;;;;0.30;0.30;;;13.40;99.90;;;;;;5054373;28;20208;-66
2023/04/01 10:39:59;;;;;;;0.40;0.40;;;13.40;99.90;;;;;;5071022;28;20164;-66
2023/04/01 10:42:34;;;;;;;0.50;0.28;;;13.40;99.90;;;;;;5072403;28;20172;-65
2023/04/01 10:45:21;;;;;;;0.30;0.30;;;13.50;99.90;;;;;;5074142;28;20164;-66
2023/04/01 10:48:12;;;;;;;0.30;0.30;;;13.50;99.90;;;;;;5055565;28;20227;-65
2023/04/01 10:50:46;;;;;;;0.30;0.22;;;13.50;99.90;;;;;;5087255;28;20194;-66
2023/04/01 10:53:36;;;;;;;0.30;0.30;;;13.50;99.90;;;;;;5087009;28;20184;-66
2023/04/01 10:56:17;;;;;;;0.30;0.30;;;13.50;99.90;;;;;;5056141;28;20217;-67
2023/04/01 10:58:52;;;;;;;0.20;0.20;;;13.50;99.90;;;;;;5073777;28;20193;-66
2023/04/01 11:01:33;;;;;;;0.30;0.28;;;13.40;99.90;;;;;;5073619;28;20176;-66
2023/04/01 11:04:29;;;;;;;0.70;0.38;;;13.40;99.90;;;;;;5073483;28;20207;-66
2023/04/01 11:07:34;;;;;;;0.50;0.50;;;13.50;99.90;;;;;;5073258;28;20196;-66
2023/04/01 11:10:35;;;;;;;0.20;0.20;;;13.50;99.90;;;;;;5075863;28;20169;-66
2023/04/01 11:13:38;;;;;;;0.55;0.32;;;13.50;99.90;;;;;;5106492;28;20266;-66
2023/04/01 11:16:23;;;;;;;0.73;0.63;;;13.50;99.90;;;;;;5090964;28;20235;-65
2023/04/01 11:18:54;;;;;;;0.65;0.57;;;13.50;99.90;;;;;;5063668;28;20181;-67
2023/04/01 11:21:41;;;;;;;1.25;0.68;;;13.50;99.90;;;;;;5104604;28;20230;-66
2023/04/01 11:24:21;;;;;;;1.00;0.90;;;13.50;99.90;;;;;;5073767;28;20169;-66
2023/04/01 11:27:07;;;;;;;1.65;0.80;;;13.50;99.90;;;;;;5065590;28;20198;-66
2023/04/01 11:30:13;;;;;;;0.50;0.50;;;13.50;99.90;;;;;;5082300;28;20203;-67
2023/04/01 11:32:54;;;;;;;0.85;0.40;;;13.50;99.90;;;;;;5076275;28;20168;-67
2023/04/01 11:35:32;;;;;;;0.25;0.25;;;13.40;99.90;;;;;;5074817;28;20216;-66
2023/04/01 11:38:19;;;;;;;0.40;0.40;;;13.40;99.90;;;;;;5101684;28;20179;-65
2023/04/01 11:41:08;;;;;;;0.32;0.32;;;13.30;99.90;;;;;;5063505;28;20176;-67
2023/04/01 11:43:59;;;;;;;0.52;0.35;;;13.30;99.90;;;;;;5062438;28;20185;-66
2023/04/01 11:46:42;;;;;;;0.50;0.40;;;13.30;99.90;;;;;;5073514;28;20233;-67
2023/04/01 11:49:45;;;;;;;0.88;0.45;;;13.30;99.90;;;;;;5076473;28;20169;-67
2023/04/01 11:52:17;;;;;;;0.50;0.40;;;13.30;99.90;;;;;;5092377;28;20181;-66
2023/04/01 11:55:07;;;;;;;0.30;0.30;;;13.30;99.90;;;;;;5099006;28;20177;-66
2023/04/01 11:57:48;;;;;;;0.45;0.30;;;13.20;99.90;;;;;;5058569;28;20284;-67
2023/04/01 12:00:17;;;;;;;0.30;0.30;;;13.20;99.90;;;;;;5056458;28;20174;-66
2023/04/01 12:02:52;;;;;;;0.35;0.35;;;13.30;99.90;;;;;;5089900;28;20230;-66
2023/04/01 12:05:41;;;;;;;1.85;0.30;;;13.20;99.90;;;;;;5087834;28;20192;-66
2023/04/01 12:08:21;;;;;;;0.55;0.30;;;13.20;99.90;;;;;;5074518;28;20178;-66
2023/04/01 12:11:15;;;;;;;1.58;0.38;;;13.20;99.90;;;;;;5101706;28;20211;-66
2023/04/01 12:14:02;;;;;;;0.57;0.30;;;13.20;99.90;;;;;;5063963;28;20201;-67
2023/04/01 12:16:46;;;;;;;0.32;0.30;;;13.20;99.90;;;;;;5074815;28;20384;-67
2023/04/01 12:19:42;;;;;;;1.05;0.38;;;13.20;99.90;;;;;;5076069;28;20161;-66
2023/04/01 12:22:35;;;;;;;0.35;0.35;;;13.20;99.90;;;;;;5071200;28;20202;-66
2023/04/01 12:25:06;;;;;;;0.30;0.30;;;13.20;99.90;;;;;;5056065;28;20185;-65
2023/04/01 12:27:38;;;;;;;0.40;0.30;;;13.20;99.90;;;;;;5075468;28;20189;-66
2023/04/01 12:30:37;;;;;;;0.55;0.40;;;13.20;99.90;;;;;;5103957;28;20193;-66
2023/04/01 12:33:33;;;;;;;0.95;0.40;;;13.20;99.90;;;;;;5060083;28;20246;-65
2023/04/01 12:36:37;;;;;;;0.38;0.32;;;13.20;99.90;;;;;;5077051;28;20207;-65
2023/04/01 12:39:33;;;;;;;0.85;0.50;;;13.30;99.90;;;;;;5111933;27;20250;-66
2023/04/01 12:42:25;;;;;;;0.47;0.40;;;13.30;99.90;;;;;;5083613;28;20172;-65
2023/04/01 12:45:13;;;;;;;0.40;0.38;;;13.30;99.90;;;;;;5071793;28;20211;-66
2023/04/01 12:47:50;;;;;;;0.32;0.30;;;13.30;99.90;;;;;;5062429;28;20180;-65
2023/04/01 12:50:22;;;;;;;0.65;0.47;;;13.40;99.90;;;;;;5090496;28;20361;-66
2023/04/01 12:53:06;;;;;;;0.38;0.30;;;13.50;99.90;;;;;;5083108;28;20185;-66
2023/04/01 12:55:39;;;;;;;0.50;0.30;;;13.50;99.90;;;;;;5059946;28;20192;-67
2023/04/01 12:58:41;;;;;;;0.20;0.20;;;13.50;99.90;;;;;;5074591;28;20211;-67
2023/04/01 13:01:25;;;;;;;0.22;0.22;;;13.60;99.90;;;;;;5074967;28;20243;-67
2023/04/01 13:03:59;;;;;;;0.38;0.32;;;13.60;99.90;;;;;;5088575;28;20157;-66
2023/04/01 13:06:29;;;;;;;0.45;0.32;;;13.60;99.90;;;;;;5069543;28;20164;-66
2023/04/01 13:09:19;;;;;;;0.60;0.38;;;13.60;99.90;;;;;;5086313;28;20204;-66
2023/04/01 13:12:14;;;;;;;0.47;0.32;;;13.60;99.90;;;;;;5074986;28;20227;-67
2023/04/01 13:15:18;;;;;;;0.30;0.30;;;13.50;99.90;;;;;;5073393;28;20179;-68
2023/04/01 13:18:02;;;;;;;1.45;0.60;;;13.50;99.90;;;;;;5055494;28;20184;-67
2023/04/01 13:21:02;;;;;;;0.73;0.50;;;13.40;99.90;;;;;;5086740;28;20256;-67
2023/04/01 13:23:57;;;;;;;0.30;0.30;;;13.30;99.90;;;;;;5069344;28;20563;-66
2023/04/01 13:26:35;;;;;;;0.50;0.40;;;13.30;99.90;;;;;;5056841;28;20196;-67
2023/04/01 13:29:16;;;;;;;0.40;0.30;;;13.40;99.90;;;;;;5052395;28;20170;-65
2023/04/01 13:31:42;;;;;;;0.63;0.40;;;13.40;99.90;;;;;;5044014;28;20207;-66
2023/04/01 13:34:25;;;;;;;0.40;0.40;;;13.40;99.90;;;;;;5035397;28;20285;-67
2023/04/01 13:36:59;;;;;;;0.47;0.43;;;13.50;99.90;;;;;;5042384;28;20170;-66
2023/04/01 13:39:43;;;;;;;0.80;0.40;;;13.50;99.90;;;;;;5071778;28;20172;-67
2023/04/01 13:42:27;;;;;;;0.32;0.32;;;13.60;99.90;;;;;;5056934;28;20201;-66